| time (UTC) | temp F | wind direction | speed MPH | gust MPH | rain 1hr in | rain 24hr in | rain mn in | humidity % | barometer mb |
| 20260503003006 | 68 | 106 | 0.0 | 1.0 | 0.00 | 0.00 | 0.00 | 98 | 1019.6 |
| 20260503001005 | 67 | 260 | 0.0 | 0.0 | 0.00 | 0.00 | 0.00 | 99 | 1019.7 |
| 20260503000006 | 66 | 278 | 0.0 | 0.0 | 0.00 | 0.00 | 0.00 | 99 | 1019.7 |
| 20260502235006 | 66 | 269 | 0.0 | 0.0 | 0.00 | 0.00 | 0.00 | 99 | 1019.8 |
| 20260502234005 | 66 | 274 | 0.0 | 0.0 | 0.00 | 0.00 | 0.00 | 99 | 1019.8 |
| 20260502233005 | 65 | 231 | 0.0 | 1.0 | 0.00 | 0.00 | 0.00 | 99 | 1019.7 |
| 20260502231006 | 64 | 207 | 0.0 | 0.0 | 0.00 | 0.00 | 0.00 | 99 | 1019.9 |
| 20260502225006 | 64 | 336 | 0.0 | 0.0 | 0.00 | 0.00 | 0.00 | 99 | 1019.9 |
| 20260502223006 | 63 | 336 | 0.0 | 0.0 | 0.00 | 0.00 | 0.00 | 99 | 1019.7 |
| 20260502222006 | 63 | 344 | 0.0 | 0.0 | 0.00 | 0.00 | 0.00 | 99 | 1019.4 |
| 20260502221006 | 63 | 344 | 0.0 | 0.0 | 0.00 | 0.00 | 0.00 | 99 | 1019.5 |
| 20260502220006 | 63 | 344 | 0.0 | 0.0 | 0.00 | 0.00 | 0.00 | 99 | 1019.2 |
| 20260502215005 | 63 | 344 | 0.0 | 0.0 | 0.00 | 0.00 | 0.00 | 99 | 1019.3 |
| 20260502214005 | 63 | 344 | 0.0 | 0.0 | 0.00 | 0.00 | 0.00 | 99 | 1019.1 |
| 20260502213006 | 62 | 344 | 0.0 | 0.0 | 0.00 | 0.00 | 0.00 | 99 | 1018.9 |
| 20260502212006 | 62 | 344 | 0.0 | 0.0 | 0.00 | 0.00 | 0.00 | 99 | 1018.8 |
| 20260502211006 | 61 | 344 | 0.0 | 0.0 | 0.00 | 0.00 | 0.00 | 99 | 1019.1 |
| 20260502210006 | 60 | 344 | 0.0 | 0.0 | 0.00 | 0.00 | 0.00 | 99 | 1018.8 |
| 20260502204005 | 60 | 344 | 0.0 | 0.0 | 0.00 | 0.00 | 0.00 | 99 | 1018.7 |
| 20260502203005 | 59 | 344 | 0.0 | 0.0 | 0.00 | 0.00 | 0.00 | 99 | 1018.5 |
| 20260502202010 | 60 | 344 | 0.0 | 0.0 | 0.00 | 0.00 | 0.00 | 99 | 1018.5 |
| 20260502201005 | 59 | 344 | 0.0 | 0.0 | 0.00 | 0.00 | 0.00 | 99 | 1018.7 |
| 20260502200005 | 59 | 344 | 0.0 | 0.0 | 0.00 | 0.00 | 0.00 | 99 | 1018.5 |
| 20260502195006 | 59 | 344 | 0.0 | 0.0 | 0.00 | 0.00 | 0.00 | 99 | 1018.3 |
| 20260502194010 | 59 | 344 | 0.0 | 0.0 | 0.00 | 0.00 | 0.00 | 99 | 1018.2 |
| 20260502193006 | 60 | 337 | 0.0 | 0.0 | 0.00 | 0.00 | 0.00 | 99 | 1018.2 |
| 20260502192005 | 60 | 337 | 0.0 | 0.0 | 0.00 | 0.00 | 0.00 | 99 | 1018.4 |
| 20260502191005 | 60 | 336 | 0.0 | 0.0 | 0.00 | 0.00 | 0.00 | 99 | 1018.4 |
| 20260502190005 | 60 | 336 | 0.0 | 0.0 | 0.00 | 0.00 | 0.00 | 99 | 1018.2 |
| 20260502184006 | 60 | 336 | 0.0 | 0.0 | 0.00 | 0.00 | 0.00 | 99 | 1018.2 |
| 20260502182005 | 60 | 336 | 0.0 | 0.0 | 0.00 | 0.00 | 0.00 | 99 | 1018.3 |
| 20260502181005 | 61 | 88 | 0.0 | 0.0 | 0.00 | 0.00 | 0.00 | 99 | 1018.3 |
| 20260502163006 | 63 | 271 | 0.0 | 0.0 | 0.00 | 0.00 | 0.00 | 99 | 1018.8 |
| 20260502162006 | 63 | 271 | 0.0 | 0.0 | 0.00 | 0.00 | 0.00 | 99 | 1018.8 |
| 20260502161011 | 63 | 271 | 0.0 | 0.0 | 0.00 | 0.00 | 0.00 | 99 | 1018.8 |
| 20260502152005 | 64 | 271 | 0.0 | 0.0 | 0.00 | 0.00 | 0.00 | 99 | 1019.3 |
| 20260502151006 | 64 | 271 | 0.0 | 0.0 | 0.00 | 0.00 | 0.00 | 99 | 1019.2 |
| 20260502123005 | 65 | 268 | 0.0 | 0.0 | 0.00 | 0.00 | 0.29 | 99 | 1019.6 |
| 20260502122006 | 65 | 268 | 0.0 | 0.0 | 0.00 | 0.00 | 0.29 | 99 | 1019.7 |
| 20260502115005 | 66 | 268 | 0.0 | 0.0 | 0.00 | 0.00 | 0.29 | 99 | 1019.9 |
| 20260502113005 | 66 | 268 | 0.0 | 0.0 | 0.00 | 0.00 | 0.28 | 99 | 1019.7 |
| 20260502112006 | 66 | 268 | 0.0 | 0.0 | 0.00 | 0.00 | 0.28 | 99 | 1019.7 |
| 20260502111006 | 66 | 268 | 0.0 | 0.0 | 0.00 | 0.00 | 0.28 | 99 | 1019.7 |
| 20260502110006 | 66 | 268 | 0.0 | 0.0 | 0.00 | 0.00 | 0.28 | 99 | 1019.7 |
| 20260502105005 | 66 | 268 | 0.0 | 0.0 | 0.00 | 0.00 | 0.28 | 99 | 1019.7 |
| 20260502104005 | 66 | 268 | 0.0 | 0.0 | 0.00 | 0.00 | 0.28 | 99 | 1019.8 |
| 20260502103006 | 66 | 268 | 0.0 | 0.0 | 0.00 | 0.00 | 0.28 | 99 | 1019.7 |
| 20260502102005 | 66 | 268 | 0.0 | 0.0 | 0.00 | 0.00 | 0.28 | 99 | 1019.7 |
| 20260502101005 | 66 | 268 | 0.0 | 0.0 | 0.00 | 0.00 | 0.28 | 99 | 1019.8 |
| 20260502091005 | 66 | 268 | 0.0 | 0.0 | 0.00 | 0.00 | 0.28 | 99 | 1019.1 |
| 20260502061005 | 67 | 321 | 0.0 | 0.0 | 0.00 | 0.00 | 0.28 | 99 | 1018.0 |
| 20260502060007 | 67 | 322 | 0.0 | 0.0 | 0.00 | 0.00 | 0.28 | 98 | 1017.9 |
| 20260502055006 | 67 | 321 | 0.0 | 0.0 | 0.00 | 0.00 | 0.28 | 98 | 1018.0 |
| 20260502054005 | 67 | 321 | 0.0 | 2.0 | 0.00 | 0.00 | 0.28 | 98 | 1018.0 |
| 20260502053005 | 67 | 227 | 0.0 | 2.0 | 0.00 | 0.00 | 0.28 | 98 | 1017.9 |
| 20260502052005 | 68 | 64 | 0.0 | 1.0 | 0.00 | 0.00 | 0.28 | 98 | 1018.0 |
| 20260502051009 | 68 | 284 | 0.0 | 0.0 | 0.00 | 0.00 | 0.28 | 99 | 1017.7 |
| 20260502050007 | 68 | 304 | 0.0 | 0.0 | 0.00 | 0.00 | 0.28 | 99 | 1017.9 |
| 20260502045005 | 68 | 304 | 0.0 | 0.0 | 0.00 | 0.00 | 0.28 | 99 | 1018.0 |
| 20260502044005 | 68 | 303 | 0.0 | 0.0 | 0.00 | 0.00 | 0.28 | 99 | 1018.1 |
| 20260502042006 | 67 | 304 | 0.0 | 0.0 | 0.00 | 0.00 | 0.28 | 98 | 1018.0 |
| 20260502041005 | 68 | 304 | 0.0 | 0.0 | 0.00 | 0.00 | 0.28 | 98 | 1018.1 |
| 20260502040006 | 68 | 303 | 0.0 | 0.0 | 0.00 | 0.00 | 0.28 | 98 | 1018.0 |
| 20260502035005 | 68 | 303 | 0.0 | 0.0 | 0.00 | 0.00 | 0.27 | 98 | 1018.3 |
| 20260502034006 | 68 | 304 | 0.0 | 0.0 | 0.00 | 0.00 | 0.26 | 98 | 1018.2 |
| 20260502033005 | 67 | 291 | 0.0 | 0.0 | 0.00 | 0.00 | 0.24 | 98 | 1018.1 |
| 20260502032005 | 67 | 291 | 0.0 | 0.0 | 0.00 | 0.00 | 0.24 | 98 | 1018.2 |
| 20260502031005 | 68 | 265 | 0.0 | 1.0 | 0.00 | 0.00 | 0.24 | 98 | 1018.4 |
| 20260502030006 | 68 | 330 | 0.0 | 0.0 | 0.00 | 0.00 | 0.24 | 97 | 1018.6 |
| 20260502025005 | 68 | 341 | 0.0 | 1.0 | 0.00 | 0.00 | 0.23 | 97 | 1018.6 |
| 20260502024005 | 68 | 97 | 0.0 | 5.0 | 0.00 | 0.00 | 0.22 | 97 | 1018.8 |
| 20260502022005 | 69 | 290 | 0.0 | 0.0 | 0.00 | 0.00 | 0.20 | 98 | 1018.8 |
| 20260502020007 | 69 | 290 | 0.0 | 0.0 | 0.00 | 0.00 | 0.20 | 98 | 1019.0 |
| 20260502015005 | 68 | 289 | 0.0 | 1.0 | 0.00 | 0.00 | 0.20 | 98 | 1019.2 |
| 20260502014005 | 68 | 256 | 0.0 | 0.0 | 0.00 | 0.00 | 0.20 | 98 | 1019.4 |
| 20260502013005 | 68 | 256 | 0.0 | 0.0 | 0.00 | 0.00 | 0.20 | 98 | 1019.7 |
| 20260502012005 | 68 | 256 | 0.0 | 0.0 | 0.00 | 0.00 | 0.20 | 98 | 1019.7 |
| 20260502010005 | 68 | 255 | 0.0 | 1.0 | 0.00 | 0.00 | 0.18 | 97 | 1020.0 |